North Conway, NH

5:09 AM EST on November 27, 2014 (GMT -0500)
Mount Washington Regional | Change Station
CLOSE
Current Station
Airport
Location: Whitefield,
Elevation: 1073 ft
Nearby Weather Stations

Elev 1073 ft 44.37 °N, 71.54 °W | Updated 17 minutes ago

Overcast
Overcast
27 °F
Feels Like 19 °F
N
8
Wind Variable Wind from NW

Today
High -- | Low -- °F
--% Chance of Precip.
Yesterday
High -- | Low -- °F
Precip. -- in
6:54 AM 4:09 PM
Waxing Crescent, 28% visible
Pressure 29.86 in
Visibility 3.0 miles
Clouds Few 1100 ft
Overcast 4300 ft
Windchill 19 °F
Dew Point 23 °F
Humidity 85%
Rainfall 0.10 in
Snow Depth Not available.
UV 0 out of 12
Pollen .10 out of 12
Air Quality Not available.
Flu Activity Not available.
METAR KHIE 270952Z AUTO 32007KT 3SM -SN BR FEW011 OVC043 M03/M05 A2981 RMK AO2 SLP110 P0001 T10281050

More Conditions Fewer Conditions

Pressure 29.86 in
Visibility 3.0 miles
Clouds Few 1100 ft
Overcast 4300 ft
Windchill 19 °F
Dew Point 23 °F
Humidity 85%
Rainfall 0.10 in
Snow Depth Not available.
UV 0 out of 12
Pollen .10 out of 12
Air Quality Not available.
Flu Activity Not available.
METAR KHIE 270952Z AUTO 32007KT 3SM -SN BR FEW011 OVC043 M03/M05 A2981 RMK AO2 SLP110 P0001 T10281050

More Conditions Fewer Conditions

10-Day Weather Forecast

Almanac

Astronomy

Nov. 27, 2014 Rise Set
Actual Time
Civil Twilight
Nautical Twilight
Astronomical Twilight
Moon
Length of Visible Light
Length of Day
Tomorrow will be .
, % of the Moon is Illuminated

Today's Extremes

State Highs State Lows

Community

WunderPhotos

Upload Photos

1,773,968 photos uploaded!

WunderBlogs® & News

Nearby

Air Quality

  Air Quality AQ Index Pollutant
Not available.

Snow Depth

Station Depth Elevation

Earthquake Activity

City Distance Mag. Time & Date
Minimum magnitude displayed is 2.5.

Coastal Water Temperatures

Place Temperature

Nearby Weather Stations